sensor_id;sensor_type;location;lat;lon;timestamp;pressure;altitude;pressure_sealevel;temperature;humidity
67517;BME280;68821;59.134;37.894;2023-05-08T00:00:30;101409.66;;;6.35;51.67
67517;BME280;68821;59.134;37.894;2023-05-08T00:02:56;101374.75;;;6.17;52.00
67517;BME280;68821;59.134;37.894;2023-05-08T00:05:22;101413.06;;;6.35;52.19
67517;BME280;68821;59.134;37.894;2023-05-08T00:07:49;101413.06;;;6.35;51.67
67517;BME280;68821;59.134;37.894;2023-05-08T00:10:17;101418.91;;;6.33;52.65
67517;BME280;68821;59.134;37.894;2023-05-08T00:12:43;101402.31;;;6.24;52.71
67517;BME280;68821;59.134;37.894;2023-05-08T00:15:10;101410.28;;;6.31;52.16
67517;BME280;68821;59.134;37.894;2023-05-08T00:17:36;101402.41;;;6.26;52.40
67517;BME280;68821;59.134;37.894;2023-05-08T00:20:03;101402.31;;;6.24;51.85
67517;BME280;68821;59.134;37.894;2023-05-08T00:22:29;101414.53;;;6.30;52.48
67517;BME280;68821;59.134;37.894;2023-05-08T00:24:55;101412.94;;;6.32;53.21
67517;BME280;68821;59.134;37.894;2023-05-08T00:27:22;101411.16;;;6.31;53.03
67517;BME280;68821;59.134;37.894;2023-05-08T00:29:48;101417.22;;;6.33;52.34
67517;BME280;68821;59.134;37.894;2023-05-08T00:32:15;101412.94;;;6.32;52.40
67517;BME280;68821;59.134;37.894;2023-05-08T00:34:41;101414.53;;;6.30;52.75
67517;BME280;68821;59.134;37.894;2023-05-08T00:37:07;101424.88;;;6.33;52.90
67517;BME280;68821;59.134;37.894;2023-05-08T00:39:34;101424.97;;;6.35;52.96
67517;BME280;68821;59.134;37.894;2023-05-08T00:42:00;101419.88;;;6.35;53.86
67517;BME280;68821;59.134;37.894;2023-05-08T00:44:26;101423.28;;;6.35;53.56
67517;BME280;68821;59.134;37.894;2023-05-08T00:46:53;101423.22;;;6.34;53.39
67517;BME280;68821;59.134;37.894;2023-05-08T00:49:20;101428.34;;;6.34;53.07
67517;BME280;68821;59.134;37.894;2023-05-08T00:51:49;101427.22;;;6.29;53.59
67517;BME280;68821;59.134;37.894;2023-05-08T00:54:18;101420.84;;;6.20;53.17
67517;BME280;68821;59.134;37.894;2023-05-08T00:56:44;101428.66;;;6.23;53.66
67517;BME280;68821;59.134;37.894;2023-05-08T00:59:15;101432.72;;;6.20;53.54
67517;BME280;68821;59.134;37.894;2023-05-08T01:01:42;101432.56;;;6.17;53.67
67517;BME280;68821;59.134;37.894;2023-05-08T01:04:09;101432.31;;;6.12;54.53
67517;BME280;68821;59.134;37.894;2023-05-08T01:06:36;101440.84;;;6.13;54.05
67517;BME280;68821;59.134;37.894;2023-05-08T01:09:03;101438.25;;;6.11;53.73
67517;BME280;68821;59.134;37.894;2023-05-08T01:11:53;101439.84;;;6.09;54.09
67517;BME280;68821;59.134;37.894;2023-05-08T01:20:31;101434.00;;;6.12;53.98
67517;BME280;68821;59.134;37.894;2023-05-08T01:26:41;101446.47;;;6.22;53.35
67517;BME280;68821;59.134;37.894;2023-05-08T01:32:18;101447.88;;;6.33;52.95
67517;BME280;68821;59.134;37.894;2023-05-08T01:37:44;101447.53;;;6.43;53.76
67517;BME280;68821;59.134;37.894;2023-05-08T01:40:31;101450.03;;;6.42;52.80
67517;BME280;68821;59.134;37.894;2023-05-08T01:43:25;101455.47;;;6.48;53.25
67517;BME280;68821;59.134;37.894;2023-05-08T01:45:55;101450.34;;;6.48;53.84
67517;BME280;68821;59.134;37.894;2023-05-08T01:48:30;101452.25;;;6.52;52.98
67517;BME280;68821;59.134;37.894;2023-05-08T01:51:03;101447.16;;;6.52;54.03
67517;BME280;68821;59.134;37.894;2023-05-08T01:53:35;101457.19;;;6.49;54.24
67517;BME280;68821;59.134;37.894;2023-05-08T01:56:08;101460.56;;;6.48;53.96
67517;BME280;68821;59.134;37.894;2023-05-08T01:58:36;101458.72;;;6.45;53.87
67517;BME280;68821;59.134;37.894;2023-05-08T02:01:03;101446.66;;;6.43;52.82
67517;BME280;68821;59.134;37.894;2023-05-08T02:03:31;101453.69;;;6.47;53.73
67517;BME280;68821;59.134;37.894;2023-05-08T02:05:59;101445.72;;;6.41;53.23
67517;BME280;68821;59.134;37.894;2023-05-08T02:08:28;101457.50;;;6.55;53.31
67517;BME280;68821;59.134;37.894;2023-05-08T02:10:55;101466.44;;;6.63;52.74
67517;BME280;68821;59.134;37.894;2023-05-08T02:13:25;101468.34;;;6.68;53.04
67517;BME280;68821;59.134;37.894;2023-05-08T02:15:53;101468.66;;;6.74;52.79
67517;BME280;68821;59.134;37.894;2023-05-08T02:18:22;101476.63;;;6.80;53.30
67517;BME280;68821;59.134;37.894;2023-05-08T02:20:50;101473.34;;;6.82;52.79
67517;BME280;68821;59.134;37.894;2023-05-08T02:23:18;101471.69;;;6.83;52.31
67517;BME280;68821;59.134;37.894;2023-05-08T02:25:46;101448.00;;;6.69;52.28
67517;BME280;68821;59.134;37.894;2023-05-08T02:28:14;101473.50;;;6.85;52.72
67517;BME280;68821;59.134;37.894;2023-05-08T02:30:42;101468.41;;;6.85;52.21
67517;BME280;68821;59.134;37.894;2023-05-08T02:33:10;101477.88;;;6.88;52.60
67517;BME280;68821;59.134;37.894;2023-05-08T02:35:39;101481.63;;;6.95;51.80
67517;BME280;68821;59.134;37.894;2023-05-08T02:38:07;101484.47;;;7.01;51.44
67517;BME280;68821;59.134;37.894;2023-05-08T02:40:37;101483.13;;;7.08;51.67
67517;BME280;68821;59.134;37.894;2023-05-08T02:43:05;101492.69;;;7.12;52.12
67517;BME280;68821;59.134;37.894;2023-05-08T02:45:37;101476.44;;;7.11;52.11
67517;BME280;68821;59.134;37.894;2023-05-08T02:51:08;101476.16;;;7.23;51.45
67517;BME280;68821;59.134;37.894;2023-05-08T02:53:42;101487.56;;;7.30;51.92
67517;BME280;68821;59.134;37.894;2023-05-08T02:56:21;101486.84;;;7.32;51.99
67517;BME280;68821;59.134;37.894;2023-05-08T02:59:19;101483.69;;;7.38;51.45
67517;BME280;68821;59.134;37.894;2023-05-08T03:02:14;101490.66;;;7.40;52.01
67517;BME280;68821;59.134;37.894;2023-05-08T03:04:48;101496.44;;;7.36;51.20
67517;BME280;68821;59.134;37.894;2023-05-08T03:07:18;101500.34;;;7.30;51.46
67517;BME280;68821;59.134;37.894;2023-05-08T03:09:49;101500.16;;;7.25;51.48
67517;BME280;68821;59.134;37.894;2023-05-08T03:12:19;101502.41;;;7.19;51.67
67517;BME280;68821;59.134;37.894;2023-05-08T03:15:25;101506.34;;;7.12;51.69
67517;BME280;68821;59.134;37.894;2023-05-08T03:17:55;101502.03;;;7.11;51.46
67517;BME280;68821;59.134;37.894;2023-05-08T03:20:23;101498.59;;;7.11;51.35
67517;BME280;68821;59.134;37.894;2023-05-08T03:22:53;101497.63;;;7.09;51.21
67517;BME280;68821;59.134;37.894;2023-05-08T03:25:20;101503.88;;;7.14;51.35
67517;BME280;68821;59.134;37.894;2023-05-08T03:27:48;101504.66;;;7.13;51.57
67517;BME280;68821;59.134;37.894;2023-05-08T03:30:15;101503.72;;;7.11;51.03
67517;BME280;68821;59.134;37.894;2023-05-08T03:32:45;101501.81;;;7.07;51.23
67517;BME280;68821;59.134;37.894;2023-05-08T03:35:13;101497.56;;;7.07;51.71
67517;BME280;68821;59.134;37.894;2023-05-08T03:37:40;101485.28;;;7.00;51.36
67517;BME280;68821;59.134;37.894;2023-05-08T03:40:08;101507.38;;;7.16;51.26
67517;BME280;68821;59.134;37.894;2023-05-08T03:42:35;101503.34;;;7.21;51.79
67517;BME280;68821;59.134;37.894;2023-05-08T03:45:02;101498.44;;;7.25;52.14
67517;BME280;68821;59.134;37.894;2023-05-08T03:47:29;101503.00;;;7.31;51.82
67517;BME280;68821;59.134;37.894;2023-05-08T03:49:56;101501.47;;;7.35;51.12
67517;BME280;68821;59.134;37.894;2023-05-08T03:52:22;101500.81;;;7.39;51.97
67517;BME280;68821;59.134;37.894;2023-05-08T03:54:49;101497.44;;;7.40;51.45
67517;BME280;68821;59.134;37.894;2023-05-08T03:57:15;101496.47;;;7.38;51.92
67517;BME280;68821;59.134;37.894;2023-05-08T04:05:46;101510.38;;;7.25;52.13
67517;BME280;68821;59.134;37.894;2023-05-08T04:08:18;101511.75;;;7.18;52.19
67517;BME280;68821;59.134;37.894;2023-05-08T04:10:56;101513.06;;;7.10;51.99
67517;BME280;68821;59.134;37.894;2023-05-08T04:13:27;101520.75;;;7.10;52.15
67517;BME280;68821;59.134;37.894;2023-05-08T04:16:06;101520.00;;;7.13;52.09
67517;BME280;68821;59.134;37.894;2023-05-08T04:18:36;101531.25;;;7.16;52.72
67517;BME280;68821;59.134;37.894;2023-05-08T04:21:09;101519.66;;;7.23;52.90
67517;BME280;68821;59.134;37.894;2023-05-08T04:23:38;101518.63;;;7.37;52.05
67517;BME280;68821;59.134;37.894;2023-05-08T04:26:05;101504.75;;;7.50;52.55
67517;BME280;68821;59.134;37.894;2023-05-08T04:28:33;101510.06;;;7.73;52.01
67517;BME280;68821;59.134;37.894;2023-05-08T04:31:00;101498.28;;;7.94;52.08
67517;BME280;68821;59.134;37.894;2023-05-08T04:33:27;101502.88;;;8.21;51.56
67517;BME280;68821;59.134;37.894;2023-05-08T04:35:54;101498.00;;;8.45;51.08
67517;BME280;68821;59.134;37.894;2023-05-08T04:38:21;101494.13;;;8.74;51.15
67517;BME280;68821;59.134;37.894;2023-05-08T04:40:47;101483.94;;;8.97;50.50
67517;BME280;68821;59.134;37.894;2023-05-08T04:43:13;101480.50;;;9.17;50.29
67517;BME280;68821;59.134;37.894;2023-05-08T04:45:39;101481.09;;;9.33;49.82
67517;BME280;68821;59.134;37.894;2023-05-08T04:48:05;101487.38;;;9.39;49.82
67517;BME280;68821;59.134;37.894;2023-05-08T04:50:31;101482.25;;;9.39;49.69
67517;BME280;68821;59.134;37.894;2023-05-08T04:52:57;101472.66;;;9.35;50.09
67517;BME280;68821;59.134;37.894;2023-05-08T04:55:23;101481.94;;;9.32;49.44
67517;BME280;68821;59.134;37.894;2023-05-08T04:57:49;101484.19;;;9.24;49.87
67517;BME280;68821;59.134;37.894;2023-05-08T05:00:15;101485.75;;;9.20;49.25
67517;BME280;68821;59.134;37.894;2023-05-08T05:02:41;101489.22;;;9.21;49.66
67517;BME280;68821;59.134;37.894;2023-05-08T05:05:08;101495.13;;;9.20;49.65
67517;BME280;68821;59.134;37.894;2023-05-08T05:07:34;101489.69;;;9.12;49.61
67517;BME280;68821;59.134;37.894;2023-05-08T05:10:00;101492.47;;;9.17;49.61
67517;BME280;68821;59.134;37.894;2023-05-08T05:12:26;101497.25;;;9.30;49.27
67517;BME280;68821;59.134;37.894;2023-05-08T05:14:52;101503.66;;;9.40;48.50
67517;BME280;68821;59.134;37.894;2023-05-08T05:17:18;101499.06;;;9.54;48.94
67517;BME280;68821;59.134;37.894;2023-05-08T05:19:44;101506.47;;;9.69;49.04
67517;BME280;68821;59.134;37.894;2023-05-08T05:22:10;101516.13;;;9.74;47.72
67517;BME280;68821;59.134;37.894;2023-05-08T05:24:36;101513.25;;;9.66;47.59
67517;BME280;68821;59.134;37.894;2023-05-08T05:27:04;101501.91;;;9.61;47.73
67517;BME280;68821;59.134;37.894;2023-05-08T05:29:30;101498.47;;;9.61;47.52
67517;BME280;68821;59.134;37.894;2023-05-08T05:31:56;101508.03;;;9.65;47.39
67517;BME280;68821;59.134;37.894;2023-05-08T05:34:23;101499.47;;;9.64;47.86
67517;BME280;68821;59.134;37.894;2023-05-08T05:36:49;101503.16;;;9.71;47.29
67517;BME280;68821;59.134;37.894;2023-05-08T05:39:15;101508.34;;;9.73;48.23
67517;BME280;68821;59.134;37.894;2023-05-08T05:41:41;101502.34;;;9.72;46.88
67517;BME280;68821;59.134;37.894;2023-05-08T05:44:09;101505.72;;;9.71;47.49
67517;BME280;68821;59.134;37.894;2023-05-08T05:46:35;101514.47;;;9.76;47.57
67517;BME280;68821;59.134;37.894;2023-05-08T05:49:02;101507.56;;;9.75;47.15
67517;BME280;68821;59.134;37.894;2023-05-08T05:51:28;101501.66;;;9.76;46.67
67517;BME280;68821;59.134;37.894;2023-05-08T05:53:54;101506.00;;;9.79;46.89
67517;BME280;68821;59.134;37.894;2023-05-08T05:56:20;101509.59;;;9.82;46.91
67517;BME280;68821;59.134;37.894;2023-05-08T05:58:48;101510.44;;;9.83;46.82
67517;BME280;68821;59.134;37.894;2023-05-08T06:01:14;101506.06;;;9.80;46.23
67517;BME280;68821;59.134;37.894;2023-05-08T06:03:40;101516.38;;;9.82;46.67
67517;BME280;68821;59.134;37.894;2023-05-08T06:06:06;101520.03;;;9.87;46.24
67517;BME280;68821;59.134;37.894;2023-05-08T06:08:32;101508.22;;;9.92;45.97
67517;BME280;68821;59.134;37.894;2023-05-08T06:10:58;101507.50;;;9.96;46.25
67517;BME280;68821;59.134;37.894;2023-05-08T06:13:24;101509.44;;;10.02;45.87
67517;BME280;68821;59.134;37.894;2023-05-08T06:15:53;101521.88;;;10.14;45.85
67517;BME280;68821;59.134;37.894;2023-05-08T06:18:21;101506.78;;;10.23;45.54
67517;BME280;68821;59.134;37.894;2023-05-08T06:20:47;101509.56;;;10.29;45.05
67517;BME280;68821;59.134;37.894;2023-05-08T06:23:13;101506.03;;;10.25;45.02
67517;BME280;68821;59.134;37.894;2023-05-08T06:25:39;101509.41;;;10.24;44.58
67517;BME280;68821;59.134;37.894;2023-05-08T06:28:05;101508.59;;;10.25;44.46
67517;BME280;68821;59.134;37.894;2023-05-08T06:30:35;101517.19;;;10.26;44.75
67517;BME280;68821;59.134;37.894;2023-05-08T06:33:01;101507.00;;;10.29;44.65
67517;BME280;68821;59.134;37.894;2023-05-08T06:35:27;101510.50;;;10.30;44.59
67517;BME280;68821;59.134;37.894;2023-05-08T06:37:53;101507.31;;;10.37;43.93
67517;BME280;68821;59.134;37.894;2023-05-08T06:40:20;101497.97;;;10.39;43.69
67517;BME280;68821;59.134;37.894;2023-05-08T06:42:46;101517.44;;;10.56;44.21
67517;BME280;68821;59.134;37.894;2023-05-08T06:45:12;101516.94;;;10.66;44.05
67517;BME280;68821;59.134;37.894;2023-05-08T06:47:38;101508.56;;;10.72;42.82
67517;BME280;68821;59.134;37.894;2023-05-08T06:50:05;101509.75;;;10.82;43.21
67517;BME280;68821;59.134;37.894;2023-05-08T06:52:31;101504.97;;;10.93;42.64
67517;BME280;68821;59.134;37.894;2023-05-08T06:54:57;101511.22;;;10.99;42.41
67517;BME280;68821;59.134;37.894;2023-05-08T06:57:24;101515.44;;;10.97;42.03
67517;BME280;68821;59.134;37.894;2023-05-08T06:59:52;101504.16;;;10.94;41.54
67517;BME280;68821;59.134;37.894;2023-05-08T07:02:18;101512.84;;;10.97;41.84
67517;BME280;68821;59.134;37.894;2023-05-08T07:04:45;101503.50;;;11.01;41.99
67517;BME280;68821;59.134;37.894;2023-05-08T07:07:11;101494.00;;;10.98;41.80
67517;BME280;68821;59.134;37.894;2023-05-08T07:09:38;101503.56;;;11.02;42.00
67517;BME280;68821;59.134;37.894;2023-05-08T07:12:05;101495.91;;;11.04;41.93
67517;BME280;68821;59.134;37.894;2023-05-08T07:14:31;101487.47;;;11.08;41.40
67517;BME280;68821;59.134;37.894;2023-05-08T07:16:57;101483.53;;;11.19;42.02
67517;BME280;68821;59.134;37.894;2023-05-08T07:19:35;101497.00;;;11.38;41.60
67517;BME280;68821;59.134;37.894;2023-05-08T07:22:01;101491.41;;;11.51;40.71
67517;BME280;68821;59.134;37.894;2023-05-08T07:24:27;101483.28;;;11.66;40.69
67517;BME280;68821;59.134;37.894;2023-05-08T07:26:53;101475.38;;;11.88;40.52
67517;BME280;68821;59.134;37.894;2023-05-08T07:29:19;101475.34;;;12.17;40.42
67517;BME280;68821;59.134;37.894;2023-05-08T07:31:46;101475.16;;;12.41;39.78
67517;BME280;68821;59.134;37.894;2023-05-08T07:34:13;101477.03;;;12.48;39.91
67517;BME280;68821;59.134;37.894;2023-05-08T07:36:39;101455.47;;;12.45;39.74
67517;BME280;68821;59.134;37.894;2023-05-08T07:39:05;101452.47;;;12.30;39.21
67517;BME280;68821;59.134;37.894;2023-05-08T07:41:31;101468.47;;;12.18;39.24
67517;BME280;68821;59.134;37.894;2023-05-08T07:43:57;101468.09;;;12.04;39.03
67517;BME280;68821;59.134;37.894;2023-05-08T07:46:23;101484.88;;;11.90;39.08
67517;BME280;68821;59.134;37.894;2023-05-08T07:48:50;101460.41;;;11.77;39.10
67517;BME280;68821;59.134;37.894;2023-05-08T07:51:16;101476.69;;;11.76;39.17
67517;BME280;68821;59.134;37.894;2023-05-08T07:53:42;101472.66;;;11.84;39.46
67517;BME280;68821;59.134;37.894;2023-05-08T07:56:08;101485.81;;;11.93;38.92
67517;BME280;68821;59.134;37.894;2023-05-08T07:58:34;101467.75;;;11.92;39.11
67517;BME280;68821;59.134;37.894;2023-05-08T08:01:01;101472.81;;;11.88;39.11
67517;BME280;68821;59.134;37.894;2023-05-08T08:03:27;101457.06;;;11.79;38.78
67517;BME280;68821;59.134;37.894;2023-05-08T08:05:54;101461.84;;;11.67;37.98
67517;BME280;68821;59.134;37.894;2023-05-08T08:08:20;101470.81;;;11.51;39.13
67517;BME280;68821;59.134;37.894;2023-05-08T08:10:46;101466.19;;;11.41;38.82
67517;BME280;68821;59.134;37.894;2023-05-08T08:13:12;101478.22;;;11.40;39.19
67517;BME280;68821;59.134;37.894;2023-05-08T08:15:38;101465.97;;;11.33;38.82
67517;BME280;68821;59.134;37.894;2023-05-08T08:18:04;101468.44;;;11.30;39.12
67517;BME280;68821;59.134;37.894;2023-05-08T08:20:30;101464.09;;;11.29;39.08
67517;BME280;68821;59.134;37.894;2023-05-08T08:22:57;101485.63;;;11.31;39.24
67517;BME280;68821;59.134;37.894;2023-05-08T08:25:23;101451.84;;;11.20;39.28
67517;BME280;68821;59.134;37.894;2023-05-08T08:27:49;101469.31;;;11.31;39.52
67517;BME280;68821;59.134;37.894;2023-05-08T08:30:15;101485.63;;;11.31;39.54
67517;BME280;68821;59.134;37.894;2023-05-08T08:32:41;101474.47;;;11.31;39.55
67517;BME280;68821;59.134;37.894;2023-05-08T08:35:08;101484.16;;;11.39;38.43
67517;BME280;68821;59.134;37.894;2023-05-08T08:37:34;101478.53;;;11.51;38.59
67517;BME280;68821;59.134;37.894;2023-05-08T08:40:00;101461.84;;;11.67;38.41
67517;BME280;68821;59.134;37.894;2023-05-08T08:42:27;101473.81;;;11.94;37.85
67517;BME280;68821;59.134;37.894;2023-05-08T08:44:54;101457.97;;;12.10;38.25
67517;BME280;68821;59.134;37.894;2023-05-08T08:47:22;101470.84;;;12.42;37.54
67517;BME280;68821;59.134;37.894;2023-05-08T08:49:50;101461.78;;;12.56;37.54
67517;BME280;68821;59.134;37.894;2023-05-08T08:52:31;101456.34;;;12.79;37.20
67517;BME280;68821;59.134;37.894;2023-05-08T08:55:06;101449.97;;;12.99;37.22
67517;BME280;68821;59.134;37.894;2023-05-08T08:57:36;101470.88;;;13.10;37.09
67517;BME280;68821;59.134;37.894;2023-05-08T09:00:06;101459.72;;;13.11;36.61
67517;BME280;68821;59.134;37.894;2023-05-08T09:02:33;101465.69;;;13.10;35.95
67517;BME280;68821;59.134;37.894;2023-05-08T09:05:00;101455.22;;;13.04;36.34
67517;BME280;68821;59.134;37.894;2023-05-08T09:07:28;101457.91;;;13.07;36.42
67517;BME280;68821;59.134;37.894;2023-05-08T09:09:55;101461.63;;;13.20;35.84
67517;BME280;68821;59.134;37.894;2023-05-08T09:12:21;101457.47;;;13.26;35.74
67517;BME280;68821;59.134;37.894;2023-05-08T09:14:47;101459.47;;;13.35;34.85
67517;BME280;68821;59.134;37.894;2023-05-08T09:17:13;101452.03;;;13.51;34.74
67517;BME280;68821;59.134;37.894;2023-05-08T09:19:40;101454.25;;;13.73;34.88
67517;BME280;68821;59.134;37.894;2023-05-08T09:22:07;101457.94;;;13.84;34.39
67517;BME280;68821;59.134;37.894;2023-05-08T09:24:54;101458.63;;;13.77;33.86
67517;BME280;68821;59.134;37.894;2023-05-08T09:27:23;101458.50;;;13.71;33.96
67517;BME280;68821;59.134;37.894;2023-05-08T09:30:09;101454.94;;;13.64;34.08
67517;BME280;68821;59.134;37.894;2023-05-08T09:32:38;101457.41;;;13.60;34.37
67517;BME280;68821;59.134;37.894;2023-05-08T09:35:06;101454.56;;;13.47;34.50
67517;BME280;68821;59.134;37.894;2023-05-08T09:37:32;101453.56;;;13.42;34.70
67517;BME280;68821;59.134;37.894;2023-05-08T09:40:21;101450.22;;;13.46;35.27
67517;BME280;68821;59.134;37.894;2023-05-08T09:42:48;101441.78;;;13.55;34.73
67517;BME280;68821;59.134;37.894;2023-05-08T09:45:29;101449.22;;;13.79;34.73
67517;BME280;68821;59.134;37.894;2023-05-08T09:47:56;101440.47;;;14.15;33.98
67517;BME280;68821;59.134;37.894;2023-05-08T09:50:23;101445.31;;;14.45;33.95
67517;BME280;68821;59.134;37.894;2023-05-08T09:52:50;101438.72;;;14.61;33.76
67517;BME280;68821;59.134;37.894;2023-05-08T09:55:16;101442.25;;;14.65;33.78
67517;BME280;68821;59.134;37.894;2023-05-08T09:57:57;101446.63;;;14.69;32.95
67517;BME280;68821;59.134;37.894;2023-05-08T10:00:25;101447.56;;;14.73;32.72
67517;BME280;68821;59.134;37.894;2023-05-08T10:03:01;101429.38;;;14.69;32.68
67517;BME280;68821;59.134;37.894;2023-05-08T10:07:58;101446.09;;;14.87;32.38
67517;BME280;68821;59.134;37.894;2023-05-08T10:10:27;101444.25;;;14.81;32.47
67517;BME280;68821;59.134;37.894;2023-05-08T10:12:54;101451.88;;;14.74;32.27
67517;BME280;68821;59.134;37.894;2023-05-08T10:15:23;101452.59;;;14.65;32.07
67517;BME280;68821;59.134;37.894;2023-05-08T10:17:58;101453.19;;;14.52;32.18
67517;BME280;68821;59.134;37.894;2023-05-08T10:20:29;101450.25;;;14.33;32.65
67517;BME280;68821;59.134;37.894;2023-05-08T10:22:56;101464.63;;;14.19;32.43
67517;BME280;68821;59.134;37.894;2023-05-08T10:25:23;101468.13;;;14.19;33.21
67517;BME280;68821;59.134;37.894;2023-05-08T10:28:09;101476.03;;;14.74;32.92
67517;BME280;68821;59.134;37.894;2023-05-08T10:30:42;101473.38;;;15.21;32.62
67517;BME280;68821;59.134;37.894;2023-05-08T10:33:10;101471.84;;;15.36;32.67
67517;BME280;68821;59.134;37.894;2023-05-08T10:35:39;101474.88;;;15.65;32.67
67517;BME280;68821;59.134;37.894;2023-05-08T10:38:09;101469.94;;;15.82;32.01
67517;BME280;68821;59.134;37.894;2023-05-08T10:40:37;101459.06;;;16.14;31.98
67517;BME280;68821;59.134;37.894;2023-05-08T10:43:05;101451.03;;;16.73;31.42
67517;BME280;68821;59.134;37.894;2023-05-08T10:45:32;101453.28;;;17.39;31.01
67517;BME280;68821;59.134;37.894;2023-05-08T10:53:43;101448.44;;;19.76;28.79
67517;BME280;68821;59.134;37.894;2023-05-08T10:56:11;101427.94;;;20.64;27.64
67517;BME280;68821;59.134;37.894;2023-05-08T10:58:37;101426.19;;;21.56;27.01
67517;BME280;68821;59.134;37.894;2023-05-08T11:03:38;101439.59;;;21.20;25.97
67517;BME280;68821;59.134;37.894;2023-05-08T11:06:05;101447.97;;;20.59;26.48
67517;BME280;68821;59.134;37.894;2023-05-08T11:08:31;101436.06;;;20.12;26.46
67517;BME280;68821;59.134;37.894;2023-05-08T11:13:33;101423.63;;;20.55;26.87
67517;BME280;68821;59.134;37.894;2023-05-08T11:16:00;101420.25;;;21.37;26.03
67517;BME280;68821;59.134;37.894;2023-05-08T11:18:27;101422.22;;;21.92;25.35
67517;BME280;68821;59.134;37.894;2023-05-08T11:20:54;101415.28;;;21.88;25.35
67517;BME280;68821;59.134;37.894;2023-05-08T11:26:05;101416.31;;;20.99;25.69
67517;BME280;68821;59.134;37.894;2023-05-08T11:28:32;101408.59;;;20.83;25.76
67517;BME280;68821;59.134;37.894;2023-05-08T11:31:06;101420.44;;;21.23;25.32
67517;BME280;68821;59.134;37.894;2023-05-08T11:33:33;101406.59;;;21.87;24.83
67517;BME280;68821;59.134;37.894;2023-05-08T11:36:21;101404.38;;;24.83;23.90
67517;BME280;68821;59.134;37.894;2023-05-08T11:39:08;101403.66;;;27.59;22.08
67517;BME280;68821;59.134;37.894;2023-05-08T11:41:39;101401.28;;;28.20;20.86
67517;BME280;68821;59.134;37.894;2023-05-08T11:44:14;101401.97;;;27.56;20.75
67517;BME280;68821;59.134;37.894;2023-05-08T11:49:15;101411.31;;;25.81;21.26
67517;BME280;68821;59.134;37.894;2023-05-08T11:51:44;101405.84;;;24.94;21.33
67517;BME280;68821;59.134;37.894;2023-05-08T11:54:13;101402.91;;;23.56;21.42
67517;BME280;68821;59.134;37.894;2023-05-08T11:56:40;101410.50;;;22.19;22.64
67517;BME280;68821;59.134;37.894;2023-05-08T11:59:07;101405.44;;;21.37;22.94
67517;BME280;68821;59.134;37.894;2023-05-08T12:01:34;101396.59;;;20.58;23.17
67517;BME280;68821;59.134;37.894;2023-05-08T12:04:08;101390.78;;;20.17;23.75
67517;BME280;68821;59.134;37.894;2023-05-08T12:06:35;101394.41;;;19.95;24.00
67517;BME280;68821;59.134;37.894;2023-05-08T12:09:16;101404.84;;;19.96;23.81
67517;BME280;68821;59.134;37.894;2023-05-08T12:11:43;101397.69;;;20.30;23.86
67517;BME280;68821;59.134;37.894;2023-05-08T12:14:11;101380.16;;;20.40;23.69
67517;BME280;68821;59.134;37.894;2023-05-08T12:16:38;101401.06;;;20.40;23.77
67517;BME280;68821;59.134;37.894;2023-05-08T12:19:10;101394.47;;;19.84;23.51
67517;BME280;68821;59.134;37.894;2023-05-08T12:21:36;101373.00;;;18.96;24.35
67517;BME280;68821;59.134;37.894;2023-05-08T12:24:06;101385.16;;;18.34;24.50
67517;BME280;68821;59.134;37.894;2023-05-08T12:26:34;101404.06;;;17.77;25.00
67517;BME280;68821;59.134;37.894;2023-05-08T12:29:04;101399.50;;;17.25;25.28
67517;BME280;68821;59.134;37.894;2023-05-08T12:31:32;101406.16;;;16.85;25.67
67517;BME280;68821;59.134;37.894;2023-05-08T12:34:01;101399.75;;;16.47;26.15
67517;BME280;68821;59.134;37.894;2023-05-08T12:36:28;101408.94;;;16.15;26.01
67517;BME280;68821;59.134;37.894;2023-05-08T12:39:11;101394.56;;;15.69;26.33
67517;BME280;68821;59.134;37.894;2023-05-08T12:41:57;101399.56;;;15.56;26.78
67517;BME280;68821;59.134;37.894;2023-05-08T12:44:24;101389.25;;;15.57;27.06
67517;BME280;68821;59.134;37.894;2023-05-08T12:46:55;101396.97;;;15.54;27.07
67517;BME280;68821;59.134;37.894;2023-05-08T12:49:26;101400.38;;;15.52;27.00
67517;BME280;68821;59.134;37.894;2023-05-08T12:52:07;101410.66;;;15.44;26.92
67517;BME280;68821;59.134;37.894;2023-05-08T12:54:38;101396.63;;;15.29;27.17
67517;BME280;68821;59.134;37.894;2023-05-08T12:57:12;101390.75;;;15.41;27.06
67517;BME280;68821;59.134;37.894;2023-05-08T12:59:39;101383.25;;;15.63;27.56
67517;BME280;68821;59.134;37.894;2023-05-08T13:02:16;101377.34;;;16.60;27.05
67517;BME280;68821;59.134;37.894;2023-05-08T13:04:43;101374.63;;;19.34;25.60
67517;BME280;68821;59.134;37.894;2023-05-08T13:07:10;101362.94;;;22.47;23.51
67517;BME280;68821;59.134;37.894;2023-05-08T13:09:55;101363.59;;;24.67;22.91
67517;BME280;68821;59.134;37.894;2023-05-08T13:12:21;101367.75;;;25.69;21.84
67517;BME280;68821;59.134;37.894;2023-05-08T13:14:47;101358.94;;;27.31;20.53
67517;BME280;68821;59.134;37.894;2023-05-08T13:17:17;101362.41;;;28.65;19.54
67517;BME280;68821;59.134;37.894;2023-05-08T13:19:44;101361.91;;;30.12;18.70
67517;BME280;68821;59.134;37.894;2023-05-08T13:22:10;101359.91;;;31.69;17.00
67517;BME280;68821;59.134;37.894;2023-05-08T13:24:36;101365.63;;;32.55;15.86
67517;BME280;68821;59.134;37.894;2023-05-08T13:27:03;101351.75;;;33.07;15.75
67517;BME280;68821;59.134;37.894;2023-05-08T13:29:29;101353.13;;;33.29;16.75
67517;BME280;68821;59.134;37.894;2023-05-08T13:31:55;101353.72;;;32.31;16.55
67517;BME280;68821;59.134;37.894;2023-05-08T13:34:21;101353.38;;;31.59;16.48
67517;BME280;68821;59.134;37.894;2023-05-08T13:36:48;101349.44;;;31.17;16.45